Airfield :







YOU CAN JOIN US ON...

 
LOGIN :

Register | Disclaimer

   EN    FR    IT 

 









Legend :    VFR   Marginal VFR   IFR   Intensive IFR   Very Intensive IFR
Visi :
Ceiling :
>= 8 km
>= 3000ft
5 to 8 km
1000 to 3000 ft
1500m to 5 km
500 to 1000 ft
800 to 1500m
200 to 500 ft
< 800m
< 200 ft
Symbols :   Thunderstorms  Fog  Heavy snow  Heavy precipitations  Wind > 20 kt






- Airport Elevation : 586 ft
- IATA code : YRJ


CYRJ - Roberval

CURRENT METAR :
  • 120500Z 28012G24KT 25SM SCT043 M13/M21 A3009 RMK SC4 PRESRR SLP208

EXPIRED METARs :
  • 120440Z 30020G28KT 25SM BKN031 M12/M20 A3007 RMK SC5 SLP200
  • 120419Z 29015G22KT 25SM -SHSN BKN031 M11/M17 A3005 RMK SC6 CVCTV CLD EMBD PRESRR SLP192
  • 120400Z 28017G26KT 25SM BKN028 M11/M17 A3003 RMK SC6 PRESRR SLP185
  • 120345Z 27015G23KT 25SM OVC035 M10/M17 A3001 RMK SC8 PRESRR SLP179
  • 120300Z 25010G16KT 12SM -SHSN OVC040 M10/M14 A2997 RMK SC8 SLP168
  • 120254Z 24010KT 20SM -SHSN OVC060 M10/M14 A2997 RMK SC8 CVCTV CLD EMBD SLP167
  • 120239Z 24009G15KT 12SM OVC094 M10/M14 A2997 RMK AS8 SLP165

Expired Forecast.



MET'MAP, your aeronautical weather chart ! - Copyright ORBIFLY December 2007 - Disclaimer

ORBIFLY MET'MAP TEAM :

Programming & Development : Alexandra Zaïnal
Concept & original design : Baudouin d'Aumeries
Assistance for programming : Marc-Olivier Méhu
Technical & hardware support : Manuel Goepfert

Contact : metmap@orbifly.com




SOURCES & CREDITS :

   NOAA